الصفحة الرئيسية
METAR-TAF:

METAR-TAF

مطار :

مطار مدريد باراخاس الدولي

مدريد, إسبانيا

دائرة عرض: 40-27N, خط طول: 003-33W, ارتفاع: 609 متر

مراقبة الطقس الحالي

تاريخ ووقت الإصدار 34 دقيقة قبل الساعة 06:00UTC
ريح 6 عقدة من الجنوب, الاتجاه يتراوح بين الشرق/الجنوب الشرقي و الغرب
درجة الحرارة 19°درجة مئوية
الرطوبة 56%
ضغط 1019 hPa
الرؤية 10 كم أو أكثر
الغيوم لا تقل 1500 م ولا وجود لمزنة ركامية السحاب الأسود

METAR: LEMD 160600Z 18006KT 110V280 CAVOK 19/10 Q1019 NOSIG

زمن: 08:34 (06:34 UTC)

توقعات

تاريخ ووقت الإصدار 1ساعة و 34 دقيقة قبل الساعة 05:00UTC
التوقعات صالحة من16 الساعة 06 UTC إلى 17 الساعة 12 UTC
ريح 5 عقدةمن اتجاهات متغيرة
الرؤية 10 كم أو أكثر
الغيوم لا تقل 1500 م ولا وجود لمزنة ركامية السحاب الأسود
أصبح
من 16 الساعة 11 UTC إلى 16 الساعة 13 UTC
ريح 8 عقدة من الشمال

TAF: LEMD 160500Z 1606/1712 VRB05KT CAVOK TX31/1615Z TN16/1705Z BECMG 1611/1613 01008KT

أرصاد الطقس والتوقعات من أكثر من 4000 مطار (تقارير الطقس للمطار METAR والتنبؤ بالطقس بالمطارTAF).

المحطات المتاحة هي النقط الصفراء والحمراء على الخريطة.

حرك المؤشر فوق النقطة لمعرفة اسم المحطة.

ثم انقر لمعرفة أرصاد وتوقعات الطقس.

لتغيير الخارطة: اضغط على الأزرار الخضراء مع رمز الصليب الأسود للتكبير. على الزر الأخضر مع شرطة للتصغير، أو على الأسهم الخضراء للخرائط المجاورة.


METAR-TAF: